createdAt,value
2018-02-04T00:00:21.937Z,801.38
2018-02-04T00:01:21.936Z,801.36
2018-02-04T00:02:21.940Z,801.37
2018-02-04T00:03:21.940Z,801.36
2018-02-04T00:04:21.939Z,801.38
2018-02-04T00:05:21.937Z,801.37
2018-02-04T00:06:21.935Z,801.34
2018-02-04T00:07:21.940Z,801.29
2018-02-04T00:08:21.939Z,801.33
2018-02-04T00:09:21.935Z,801.29
2018-02-04T00:10:21.929Z,801.25
2018-02-04T00:11:21.931Z,801.29
2018-02-04T00:12:21.930Z,801.31
2018-02-04T00:13:21.925Z,801.25
2018-02-04T00:14:21.922Z,801.25
2018-02-04T00:15:21.923Z,801.26
2018-02-04T00:16:21.921Z,801.28
2018-02-04T00:17:21.921Z,801.26
2018-02-04T00:18:21.926Z,801.30
2018-02-04T00:19:21.920Z,801.30
2018-02-04T00:20:21.925Z,801.30
2018-02-04T00:21:21.926Z,801.27
2018-02-04T00:22:21.915Z,801.31
2018-02-04T00:23:21.916Z,801.28
2018-02-04T00:24:21.922Z,801.32
2018-02-04T00:25:21.920Z,801.31
2018-02-04T00:26:21.919Z,801.34
2018-02-04T00:27:21.912Z,801.33
2018-02-04T00:28:21.918Z,801.34
2018-02-04T00:29:21.917Z,801.33
2018-02-04T00:30:21.917Z,801.35
2018-02-04T00:31:21.910Z,801.32
2018-02-04T00:32:21.913Z,801.33
2018-02-04T00:33:21.911Z,801.37
2018-02-04T00:34:21.906Z,801.30
2018-02-04T00:35:21.907Z,801.32
2018-02-04T00:36:21.907Z,801.27
2018-02-04T00:37:21.905Z,801.32
2018-02-04T00:38:21.911Z,801.33
2018-02-04T00:39:21.908Z,801.38
2018-02-04T00:40:21.908Z,801.36
2018-02-04T00:41:21.908Z,801.40
2018-02-04T00:42:21.906Z,801.42
2018-02-04T00:43:21.901Z,801.42
2018-02-04T00:44:21.906Z,801.47
2018-02-04T00:45:21.905Z,801.43
2018-02-04T00:46:21.900Z,801.41
2018-02-04T00:47:21.903Z,801.42
2018-02-04T00:48:21.905Z,801.46
2018-02-04T00:49:21.895Z,801.45
2018-02-04T00:50:21.898Z,801.46
2018-02-04T00:51:21.896Z,801.45
2018-02-04T00:52:21.894Z,801.44
2018-02-04T00:53:21.900Z,801.51
2018-02-04T00:54:21.892Z,801.47
2018-02-04T00:55:21.891Z,801.48
2018-02-04T00:56:21.891Z,801.48
2018-02-04T00:57:21.891Z,801.47
2018-02-04T00:58:21.900Z,801.45
2018-02-04T00:59:21.896Z,801.47
2018-02-04T01:00:21.889Z,801.50
2018-02-04T01:01:21.894Z,801.51
2018-02-04T01:02:21.892Z,801.49
2018-02-04T01:03:21.885Z,801.50
2018-02-04T01:04:21.888Z,801.52
2018-02-04T01:05:21.884Z,801.51
2018-02-04T01:06:21.882Z,801.48
2018-02-04T01:07:21.891Z,801.50
2018-02-04T01:08:21.882Z,801.50
2018-02-04T01:09:21.890Z,801.49
2018-02-04T01:10:21.881Z,801.47
2018-02-04T01:11:21.885Z,801.47
2018-02-04T01:12:21.885Z,801.43
2018-02-04T01:13:21.879Z,801.44
2018-02-04T01:14:21.878Z,801.45
2018-02-04T01:15:21.878Z,801.46
2018-02-04T01:16:21.877Z,801.46
2018-02-04T01:17:21.881Z,801.44
2018-02-04T01:18:21.875Z,801.44
2018-02-04T01:19:21.875Z,801.47
2018-02-04T01:20:21.879Z,801.44
2018-02-04T01:21:21.879Z,801.47
2018-02-04T01:22:21.877Z,801.48
2018-02-04T01:23:21.872Z,801.49
2018-02-04T01:24:21.923Z,801.50
2018-02-04T01:25:21.878Z,801.49
2018-02-04T01:26:21.876Z,801.53
2018-02-04T01:27:21.869Z,801.56
2018-02-04T01:28:21.869Z,801.56
2018-02-04T01:29:21.879Z,801.59
2018-02-04T01:30:21.866Z,801.60
2018-02-04T01:31:21.867Z,801.59
2018-02-04T01:32:21.870Z,801.60
2018-02-04T01:33:21.875Z,801.58
2018-02-04T01:34:21.870Z,801.63
2018-02-04T01:35:21.872Z,801.65
2018-02-04T01:36:21.865Z,801.69
2018-02-04T01:37:21.870Z,801.71
2018-02-04T01:38:21.867Z,801.70
2018-02-04T01:39:21.869Z,801.73
2018-02-04T01:40:21.864Z,801.70
2018-02-04T01:41:21.868Z,801.74
2018-02-04T01:42:21.865Z,801.76
2018-02-04T01:43:21.868Z,801.78
2018-02-04T01:44:21.865Z,801.79
2018-02-04T01:45:21.860Z,801.78
2018-02-04T01:46:21.859Z,801.80
2018-02-04T01:47:21.864Z,801.81
2018-02-04T01:48:21.863Z,801.82
2018-02-04T01:49:21.860Z,801.82
2018-02-04T01:50:21.857Z,801.83
2018-02-04T01:51:21.866Z,801.84
2018-02-04T01:52:21.861Z,801.86
2018-02-04T01:53:21.856Z,801.83
2018-02-04T01:54:21.855Z,801.84
2018-02-04T01:55:21.853Z,801.82
2018-02-04T01:56:21.860Z,801.82
2018-02-04T01:57:21.860Z,801.81
2018-02-04T01:58:21.852Z,801.80
2018-02-04T01:59:21.860Z,801.78
2018-02-04T02:00:21.850Z,801.80
2018-02-04T02:01:21.856Z,801.80
2018-02-04T02:02:21.849Z,801.83
2018-02-04T02:03:21.852Z,801.81
2018-02-04T02:04:21.853Z,801.86
2018-02-04T02:05:21.853Z,801.85
2018-02-04T02:06:21.846Z,801.85
2018-02-04T02:07:21.845Z,801.85
2018-02-04T02:08:21.851Z,801.84
2018-02-04T02:09:21.846Z,801.84
2018-02-04T02:10:21.845Z,801.83
2018-02-04T02:11:21.847Z,801.85
2018-02-04T02:12:21.846Z,801.87
2018-02-04T02:13:21.848Z,801.87
2018-02-04T02:14:21.841Z,801.86
2018-02-04T02:15:21.840Z,801.90
2018-02-04T02:16:21.839Z,801.90
2018-02-04T02:17:21.838Z,801.90
2018-02-04T02:18:21.843Z,801.91
2018-02-04T02:19:21.844Z,801.91
2018-02-04T02:20:21.841Z,801.93
2018-02-04T02:21:21.840Z,801.93
2018-02-04T02:22:21.837Z,801.95
2018-02-04T02:23:21.836Z,801.94
2018-02-04T02:24:21.837Z,801.94
2018-02-04T02:25:21.841Z,801.93
2018-02-04T02:26:21.834Z,801.97
2018-02-04T02:27:21.828Z,801.95
2018-02-04T02:28:21.828Z,801.95
2018-02-04T02:29:21.827Z,801.96
2018-02-04T02:30:21.827Z,801.95
2018-02-04T02:31:21.888Z,801.95
2018-02-04T02:32:21.828Z,801.98
2018-02-04T02:33:21.824Z,801.98
2018-02-04T02:34:21.828Z,801.98
2018-02-04T02:35:21.833Z,801.97
2018-02-04T02:36:21.819Z,801.98
2018-02-04T02:37:21.824Z,802.00
2018-02-04T02:38:21.817Z,802.01
2018-02-04T02:39:21.824Z,801.98
2018-02-04T02:40:21.815Z,801.99
2018-02-04T02:41:21.819Z,802.00
2018-02-04T02:42:21.812Z,801.97
2018-02-04T02:43:21.818Z,802.00
2018-02-04T02:44:21.811Z,802.03
2018-02-04T02:45:21.810Z,802.06
2018-02-04T02:46:21.813Z,802.02
2018-02-04T02:47:21.812Z,802.06
2018-02-04T02:48:21.813Z,802.11
2018-02-04T02:49:21.806Z,802.11
2018-02-04T02:50:21.809Z,802.12
2018-02-04T02:51:21.803Z,802.07
2018-02-04T02:52:21.801Z,802.11
2018-02-04T02:53:21.806Z,802.11
2018-02-04T02:54:21.807Z,802.14
2018-02-04T02:55:21.803Z,802.14
2018-02-04T02:56:21.805Z,802.13
2018-02-04T02:57:21.797Z,802.13
2018-02-04T02:58:21.800Z,802.11
2018-02-04T02:59:21.800Z,802.11
2018-02-04T03:00:21.794Z,802.15
2018-02-04T03:01:21.793Z,802.16
2018-02-04T03:02:21.789Z,802.15
2018-02-04T03:03:21.789Z,802.14
2018-02-04T03:04:21.796Z,802.14
2018-02-04T03:05:21.795Z,802.16
2018-02-04T03:06:21.786Z,802.14
2018-02-04T03:07:21.791Z,802.17
2018-02-04T03:08:21.784Z,802.18
2018-02-04T03:09:21.784Z,802.18
2018-02-04T03:10:21.783Z,802.20
2018-02-04T03:11:21.787Z,802.19
2018-02-04T03:12:21.781Z,802.18
2018-02-04T03:13:21.785Z,802.23
2018-02-04T03:14:21.784Z,802.23
2018-02-04T03:15:21.777Z,802.25
2018-02-04T03:16:21.783Z,802.22
2018-02-04T03:17:21.782Z,802.32
2018-02-04T03:18:21.779Z,802.32
2018-02-04T03:19:21.777Z,802.30
2018-02-04T03:20:21.773Z,802.36
2018-02-04T03:21:21.772Z,802.34
2018-02-04T03:22:21.776Z,802.43
2018-02-04T03:23:21.776Z,802.44
2018-02-04T03:24:21.769Z,802.49
2018-02-04T03:25:21.773Z,802.46
2018-02-04T03:26:21.766Z,802.44
2018-02-04T03:27:21.773Z,802.48
2018-02-04T03:28:21.774Z,802.51
2018-02-04T03:29:21.765Z,802.49
2018-02-04T03:30:21.766Z,802.54
2018-02-04T03:31:21.763Z,802.55
2018-02-04T03:32:21.762Z,802.52
2018-02-04T03:33:21.760Z,802.56
2018-02-04T03:34:21.764Z,802.59
2018-02-04T03:35:21.763Z,802.57
2018-02-04T03:36:21.764Z,802.61
2018-02-04T03:37:21.757Z,802.62
2018-02-04T03:38:21.754Z,802.66
2018-02-04T03:39:21.755Z,802.69
2018-02-04T03:40:21.755Z,802.68
2018-02-04T03:41:21.755Z,802.71
2018-02-04T03:42:21.751Z,802.70
2018-02-04T03:43:21.752Z,802.67
2018-02-04T03:44:21.750Z,802.69
2018-02-04T03:45:21.755Z,802.68
2018-02-04T03:46:21.748Z,802.71
2018-02-04T03:47:21.755Z,802.66
2018-02-04T03:48:21.751Z,802.67
2018-02-04T03:49:21.752Z,802.70
2018-02-04T03:50:21.753Z,802.68
2018-02-04T03:51:21.749Z,802.69
2018-02-04T03:52:21.747Z,802.72
2018-02-04T03:53:21.743Z,802.69
2018-02-04T03:54:21.746Z,802.74
2018-02-04T03:55:21.746Z,802.73
2018-02-04T03:56:21.744Z,802.71
2018-02-04T03:57:21.739Z,802.73
2018-02-04T03:58:21.741Z,802.70
2018-02-04T03:59:21.739Z,802.71
2018-02-04T04:00:21.737Z,802.70
2018-02-04T04:01:21.740Z,802.68
2018-02-04T04:02:21.740Z,802.64
2018-02-04T04:03:21.742Z,802.68
2018-02-04T04:04:21.734Z,802.67
2018-02-04T04:05:21.740Z,802.74
2018-02-04T04:06:21.731Z,802.70
2018-02-04T04:07:21.731Z,802.67
2018-02-04T04:08:21.731Z,802.67
2018-02-04T04:09:21.730Z,802.68
2018-02-04T04:10:21.776Z,802.68
2018-02-04T04:11:21.732Z,802.67
2018-02-04T04:12:21.727Z,802.66
2018-02-04T04:13:21.726Z,802.66
2018-02-04T04:14:21.731Z,802.64
2018-02-04T04:15:21.726Z,802.61
2018-02-04T04:16:21.729Z,802.66
2018-02-04T04:17:21.729Z,802.64
2018-02-04T04:18:21.722Z,802.65
2018-02-04T04:19:21.721Z,802.67
2018-02-04T04:20:21.720Z,802.69
2018-02-04T04:21:21.720Z,802.69
2018-02-04T04:22:21.718Z,802.71
2018-02-04T04:23:21.722Z,802.72
2018-02-04T04:24:21.723Z,802.71
2018-02-04T04:25:21.722Z,802.72
2018-02-04T04:26:21.724Z,802.73
2018-02-04T04:27:21.722Z,802.75
2018-02-04T04:28:21.725Z,802.78
2018-02-04T04:29:21.720Z,802.74
2018-02-04T04:30:21.716Z,802.72
2018-02-04T04:31:21.710Z,802.71
2018-02-04T04:32:21.710Z,802.73
2018-02-04T04:33:21.707Z,802.74
2018-02-04T04:34:21.711Z,802.74
2018-02-04T04:35:21.711Z,802.73
2018-02-04T04:36:21.711Z,802.74
2018-02-04T04:37:21.709Z,802.72
2018-02-04T04:38:21.714Z,802.77
2018-02-04T04:39:21.702Z,802.74
2018-02-04T04:40:21.703Z,802.77
2018-02-04T04:41:21.705Z,802.78
2018-02-04T04:42:21.702Z,802.73
2018-02-04T04:43:21.702Z,802.79
2018-02-04T04:44:21.704Z,802.78
2018-02-04T04:45:21.703Z,802.82
2018-02-04T04:46:21.701Z,802.82
2018-02-04T04:47:21.700Z,802.83
2018-02-04T04:48:21.694Z,802.81
2018-02-04T04:49:21.697Z,802.84
2018-02-04T04:50:21.691Z,802.86
2018-02-04T04:51:21.690Z,802.83
2018-02-04T04:52:21.692Z,802.86
2018-02-04T04:53:21.694Z,802.84
2018-02-04T04:54:21.693Z,802.82
2018-02-04T04:55:21.692Z,802.84
2018-02-04T04:56:21.690Z,802.84
2018-02-04T04:57:21.694Z,802.86
2018-02-04T04:58:21.689Z,802.86
2018-02-04T04:59:21.690Z,802.82
2018-02-04T05:00:21.688Z,802.84
2018-02-04T05:01:21.682Z,802.86
2018-02-04T05:02:21.679Z,802.85
2018-02-04T05:03:21.683Z,802.84
2018-02-04T05:04:21.684Z,802.84
2018-02-04T05:05:21.679Z,802.86
2018-02-04T05:06:21.682Z,802.87
2018-02-04T05:07:21.675Z,802.90
2018-02-04T05:08:21.681Z,802.89
2018-02-04T05:09:21.680Z,802.91
2018-02-04T05:10:21.676Z,802.88
2018-02-04T05:11:21.679Z,802.87
2018-02-04T05:12:21.678Z,802.86
2018-02-04T05:13:21.672Z,802.87
2018-02-04T05:14:21.675Z,802.85
2018-02-04T05:15:21.668Z,802.86
2018-02-04T05:16:21.673Z,802.88
2018-02-04T05:17:21.673Z,802.89
2018-02-04T05:18:21.672Z,802.87
2018-02-04T05:19:21.666Z,802.87
2018-02-04T05:20:21.668Z,802.88
2018-02-04T05:21:21.671Z,802.86
2018-02-04T05:22:21.662Z,802.88
2018-02-04T05:23:21.665Z,802.86
2018-02-04T05:24:21.665Z,802.86
2018-02-04T05:25:21.666Z,802.89
2018-02-04T05:26:21.665Z,802.91
2018-02-04T05:27:21.670Z,802.88
2018-02-04T05:28:21.666Z,802.87
2018-02-04T05:29:21.665Z,802.91
2018-02-04T05:30:21.662Z,802.89
2018-02-04T05:31:21.662Z,802.94
2018-02-04T05:32:21.664Z,802.95
2018-02-04T05:33:21.659Z,802.96
2018-02-04T05:34:21.653Z,802.96
2018-02-04T05:35:21.657Z,802.93
2018-02-04T05:36:21.659Z,802.98
2018-02-04T05:37:21.656Z,803.01
2018-02-04T05:38:21.649Z,803.01
2018-02-04T05:39:21.651Z,803.00
2018-02-04T05:40:21.653Z,802.97
2018-02-04T05:41:21.653Z,802.98
2018-02-04T05:42:21.653Z,802.96
2018-02-04T05:43:21.645Z,802.98
2018-02-04T05:44:21.646Z,803.00
2018-02-04T05:45:21.648Z,803.00
2018-02-04T05:46:21.644Z,802.99
2018-02-04T05:47:21.648Z,803.00
2018-02-04T05:48:21.646Z,802.97
2018-02-04T05:49:21.649Z,803.02
2018-02-04T05:50:21.642Z,803.04
2018-02-04T05:51:21.639Z,803.05
2018-02-04T05:52:21.646Z,803.05
2018-02-04T05:53:21.645Z,803.07
2018-02-04T05:54:21.639Z,803.13
2018-02-04T05:55:21.638Z,803.15
2018-02-04T05:56:21.645Z,803.15
2018-02-04T05:57:21.637Z,803.22
2018-02-04T05:58:21.641Z,803.22
2018-02-04T05:59:21.640Z,803.25
2018-02-04T06:00:21.647Z,803.23
2018-02-04T06:01:21.641Z,803.26
2018-02-04T06:02:21.641Z,803.30
2018-02-04T06:03:21.639Z,803.29
2018-02-04T06:04:21.632Z,803.28
2018-02-04T06:05:21.636Z,803.24
2018-02-04T06:06:21.631Z,803.25
2018-02-04T06:07:21.635Z,803.26
2018-02-04T06:08:21.630Z,803.26
2018-02-04T06:09:21.636Z,803.26
2018-02-04T06:10:21.634Z,803.31
2018-02-04T06:11:21.633Z,803.32
2018-02-04T06:12:21.635Z,803.34
2018-02-04T06:13:21.634Z,803.31
2018-02-04T06:14:21.632Z,803.32
2018-02-04T06:15:21.633Z,803.32
2018-02-04T06:16:21.631Z,803.33
2018-02-04T06:17:21.630Z,803.33
2018-02-04T06:18:21.629Z,803.35
2018-02-04T06:19:21.629Z,803.38
2018-02-04T06:20:21.627Z,803.39
2018-02-04T06:21:21.628Z,803.40
2018-02-04T06:22:21.674Z,803.40
2018-02-04T06:23:21.620Z,803.46
2018-02-04T06:24:21.621Z,803.46
2018-02-04T06:25:21.619Z,803.51
2018-02-04T06:26:21.623Z,803.53
2018-02-04T06:27:21.624Z,803.52
2018-02-04T06:28:21.618Z,803.53
2018-02-04T06:29:21.617Z,803.48
2018-02-04T06:30:21.625Z,803.53
2018-02-04T06:31:21.615Z,803.53
2018-02-04T06:32:21.613Z,803.53
2018-02-04T06:33:21.619Z,803.52
2018-02-04T06:34:21.612Z,803.54
2018-02-04T06:35:21.637Z,803.56
2018-02-04T06:36:21.612Z,803.55
2018-02-04T06:37:21.612Z,803.58
2018-02-04T06:38:21.609Z,803.61
2018-02-04T06:39:21.611Z,803.59
2018-02-04T06:40:21.615Z,803.60
2018-02-04T06:41:21.610Z,803.58
2018-02-04T06:42:21.614Z,803.62
2018-02-04T06:43:21.613Z,803.62
2018-02-04T06:44:21.607Z,803.62
2018-02-04T06:45:21.607Z,803.65
2018-02-04T06:46:21.606Z,803.70
2018-02-04T06:47:21.610Z,803.69
2018-02-04T06:48:21.606Z,803.73
2018-02-04T06:49:21.610Z,803.70
2018-02-04T06:50:21.603Z,803.73
2018-02-04T06:51:21.603Z,803.76
2018-02-04T06:52:21.608Z,803.73
2018-02-04T06:53:21.607Z,803.77
2018-02-04T06:54:21.600Z,803.77
2018-02-04T06:55:21.608Z,803.79
2018-02-04T06:56:21.606Z,803.77
2018-02-04T06:57:21.607Z,803.79
2018-02-04T06:58:21.602Z,803.78
2018-02-04T06:59:21.597Z,803.80
2018-02-04T07:00:21.603Z,803.84
2018-02-04T07:01:21.598Z,803.82
2018-02-04T07:02:21.602Z,803.89
2018-02-04T07:03:21.602Z,803.84
2018-02-04T07:04:21.596Z,803.84
2018-02-04T07:05:21.595Z,803.84
2018-02-04T07:06:21.604Z,803.86
2018-02-04T07:07:21.593Z,803.87
2018-02-04T07:08:21.594Z,803.86
2018-02-04T07:09:21.599Z,803.86
2018-02-04T07:10:21.591Z,803.85
2018-02-04T07:11:21.597Z,803.85
2018-02-04T07:12:21.595Z,803.84
2018-02-04T07:13:21.597Z,803.86
2018-02-04T07:14:21.595Z,803.88
2018-02-04T07:15:21.595Z,803.88
2018-02-04T07:16:21.595Z,803.87
2018-02-04T07:17:21.590Z,803.89
2018-02-04T07:18:21.588Z,803.88
2018-02-04T07:19:21.588Z,803.91
2018-02-04T07:20:21.592Z,803.92
2018-02-04T07:21:21.589Z,803.91
2018-02-04T07:22:21.585Z,803.94
2018-02-04T07:23:21.586Z,803.92
2018-02-04T07:24:21.587Z,803.94
2018-02-04T07:25:21.586Z,803.96
2018-02-04T07:26:21.585Z,804.00
2018-02-04T07:27:21.589Z,803.99
2018-02-04T07:28:21.585Z,803.98
2018-02-04T07:29:21.584Z,804.00
2018-02-04T07:30:21.589Z,804.03
2018-02-04T07:31:21.588Z,804.00
2018-02-04T07:32:21.585Z,804.03
2018-02-04T07:33:21.582Z,804.04
2018-02-04T07:34:21.582Z,804.02
2018-02-04T07:35:21.588Z,804.06
2018-02-04T07:36:21.581Z,804.07
2018-02-04T07:37:21.582Z,804.08
2018-02-04T07:38:21.585Z,804.07
2018-02-04T07:39:21.587Z,804.05
2018-02-04T07:40:21.580Z,804.06
2018-02-04T07:41:21.585Z,804.07
2018-02-04T07:42:21.580Z,804.08
2018-02-04T07:43:21.580Z,804.11
2018-02-04T07:44:21.583Z,804.11
2018-02-04T07:45:21.580Z,804.14
2018-02-04T07:46:21.576Z,804.13
2018-02-04T07:47:21.621Z,804.14
2018-02-04T07:48:21.614Z,804.18
2018-02-04T07:49:21.578Z,804.19
2018-02-04T07:50:21.577Z,804.15
2018-02-04T07:51:21.583Z,804.21
2018-02-04T07:52:21.577Z,804.24
2018-02-04T07:53:21.577Z,804.24
2018-02-04T07:54:21.577Z,804.24
2018-02-04T07:55:21.576Z,804.28
2018-02-04T07:56:21.581Z,804.29
2018-02-04T07:57:21.576Z,804.31
2018-02-04T07:58:21.581Z,804.33
2018-02-04T07:59:21.583Z,804.32
2018-02-04T08:00:21.576Z,804.38
2018-02-04T08:01:21.582Z,804.32
2018-02-04T08:02:21.576Z,804.29
2018-02-04T08:03:21.583Z,804.32
2018-02-04T08:04:21.577Z,804.32
2018-02-04T08:05:21.575Z,804.33
2018-02-04T08:06:21.579Z,804.32
2018-02-04T08:07:21.581Z,804.34
2018-02-04T08:08:21.581Z,804.39
2018-02-04T08:09:21.583Z,804.41
2018-02-04T08:10:21.575Z,804.37
2018-02-04T08:11:21.582Z,804.40
2018-02-04T08:12:21.582Z,804.39
2018-02-04T08:13:21.582Z,804.37
2018-02-04T08:14:21.583Z,804.40
2018-02-04T08:15:21.577Z,804.45
2018-02-04T08:16:21.579Z,804.40
2018-02-04T08:17:21.581Z,804.43
2018-02-04T08:18:21.579Z,804.43
2018-02-04T08:19:21.580Z,804.42
2018-02-04T08:20:21.587Z,804.45
2018-02-04T08:21:21.579Z,804.47
2018-02-04T08:22:21.586Z,804.49
2018-02-04T08:23:21.588Z,804.49
2018-02-04T08:24:21.582Z,804.48
2018-02-04T08:25:21.588Z,804.47
2018-02-04T08:26:21.590Z,804.50
2018-02-04T08:27:21.593Z,804.48
2018-02-04T08:28:21.585Z,804.49
2018-02-04T08:29:21.592Z,804.48
2018-02-04T08:30:21.591Z,804.50
2018-02-04T08:31:21.592Z,804.50
2018-02-04T08:32:21.588Z,804.51
2018-02-04T08:33:21.588Z,804.56
2018-02-04T08:34:21.587Z,804.60
2018-02-04T08:35:21.589Z,804.58
2018-02-04T08:36:21.595Z,804.53
2018-02-04T08:37:21.593Z,804.56
2018-02-04T08:38:21.591Z,804.59
2018-02-04T08:39:21.592Z,804.62
2018-02-04T08:40:21.599Z,804.63
2018-02-04T08:41:21.600Z,804.62
2018-02-04T08:42:21.595Z,804.62
2018-02-04T08:43:21.598Z,804.65
2018-02-04T08:44:21.602Z,804.68
2018-02-04T08:45:21.604Z,804.70
2018-02-04T08:46:21.602Z,804.71
2018-02-04T08:47:21.601Z,804.71
2018-02-04T08:48:21.604Z,804.72
2018-02-04T08:49:21.605Z,804.73
2018-02-04T08:50:21.605Z,804.68
2018-02-04T08:51:21.613Z,804.74
2018-02-04T08:52:21.614Z,804.71
2018-02-04T08:53:21.609Z,804.73
2018-02-04T08:54:21.620Z,804.73
2018-02-04T08:55:21.618Z,804.77
2018-02-04T08:56:21.613Z,804.74
2018-02-04T08:57:21.621Z,804.76
2018-02-04T08:58:21.626Z,804.78
2018-02-04T08:59:21.623Z,804.81
2018-02-04T09:00:21.623Z,804.79
2018-02-04T09:01:21.619Z,804.83
2018-02-04T09:02:21.622Z,804.84
2018-02-04T09:03:21.628Z,804.85
2018-02-04T09:04:21.624Z,804.86
2018-02-04T09:05:21.631Z,804.90
2018-02-04T09:06:21.635Z,804.88
2018-02-04T09:07:21.636Z,804.90
2018-02-04T09:08:21.638Z,804.94
2018-02-04T09:09:21.639Z,804.92
2018-02-04T09:10:21.641Z,804.92
2018-02-04T09:11:21.638Z,804.91
2018-02-04T09:12:21.640Z,804.93
2018-02-04T09:13:21.649Z,804.94
2018-02-04T09:14:21.642Z,804.92
2018-02-04T09:15:21.650Z,804.88
2018-02-04T09:16:21.656Z,804.91
2018-02-04T09:17:21.655Z,804.88
2018-02-04T09:18:21.651Z,804.92
2018-02-04T09:19:21.661Z,804.93
2018-02-04T09:20:21.657Z,804.95
2018-02-04T09:21:21.664Z,804.93
2018-02-04T09:22:21.661Z,804.93
2018-02-04T09:23:21.672Z,804.94
2018-02-04T09:24:21.673Z,804.97
2018-02-04T09:25:21.670Z,805.00
2018-02-04T09:26:21.673Z,805.01
2018-02-04T09:27:21.681Z,805.06
2018-02-04T09:28:21.679Z,805.04
2018-02-04T09:29:21.679Z,805.03
2018-02-04T09:30:21.683Z,805.02
2018-02-04T09:31:21.684Z,805.06
2018-02-04T09:32:21.690Z,805.11
2018-02-04T09:33:21.688Z,805.15
2018-02-04T09:34:21.697Z,805.14
2018-02-04T09:35:21.699Z,805.15
2018-02-04T09:36:21.748Z,805.16
2018-02-04T09:37:21.701Z,805.14
2018-02-04T09:38:21.701Z,805.18
2018-02-04T09:39:21.702Z,805.17
2018-02-04T09:40:21.713Z,805.15
2018-02-04T09:41:21.717Z,805.20
2018-02-04T09:42:21.710Z,805.20
2018-02-04T09:43:21.721Z,805.16
2018-02-04T09:44:21.721Z,805.23
2018-02-04T09:45:21.722Z,805.23
2018-02-04T09:46:21.720Z,805.23
2018-02-04T09:47:21.724Z,805.22
2018-02-04T09:48:21.734Z,805.27
2018-02-04T09:49:21.729Z,805.29
2018-02-04T09:50:21.737Z,805.26
2018-02-04T09:51:21.731Z,805.29
2018-02-04T09:52:21.736Z,805.31
2018-02-04T09:53:21.738Z,805.33
2018-02-04T09:54:21.741Z,805.34
2018-02-04T09:55:21.751Z,805.34
2018-02-04T09:56:21.746Z,805.36
2018-02-04T09:57:21.748Z,805.36
2018-02-04T09:58:21.759Z,805.40
2018-02-04T09:59:21.760Z,805.41
2018-02-04T10:00:21.765Z,805.43
2018-02-04T10:01:21.767Z,805.47
2018-02-04T10:02:21.789Z,805.49
2018-02-04T10:03:21.769Z,805.43
2018-02-04T10:04:21.803Z,805.47
2018-02-04T10:05:21.778Z,805.50
2018-02-04T10:06:21.794Z,805.50
2018-02-04T10:07:21.792Z,805.51
2018-02-04T10:08:21.782Z,805.52
2018-02-04T10:09:21.790Z,805.52
2018-02-04T10:10:21.794Z,805.59
2018-02-04T10:11:21.789Z,805.56
2018-02-04T10:12:21.797Z,805.57
2018-02-04T10:13:21.801Z,805.60
2018-02-04T10:14:21.804Z,805.63
2018-02-04T10:15:21.809Z,805.61
2018-02-04T10:16:21.813Z,805.61
2018-02-04T10:17:21.811Z,805.66
2018-02-04T10:18:21.818Z,805.66
2018-02-04T10:19:21.823Z,805.65
2018-02-04T10:20:21.823Z,805.69
2018-02-04T10:21:21.826Z,805.67
2018-02-04T10:22:21.836Z,805.68
2018-02-04T10:23:21.845Z,805.70
2018-02-04T10:24:21.858Z,805.70
2018-02-04T10:25:21.848Z,805.71
2018-02-04T10:26:21.849Z,805.73
2018-02-04T10:27:21.848Z,805.75
2018-02-04T10:28:21.851Z,805.77
2018-02-04T10:29:21.865Z,805.78
2018-02-04T10:30:21.868Z,805.82
2018-02-04T10:31:21.874Z,805.79
2018-02-04T10:32:21.877Z,805.78
2018-02-04T10:33:21.872Z,805.80
2018-02-04T10:34:21.877Z,805.80
2018-02-04T10:35:21.878Z,805.84
2018-02-04T10:36:21.904Z,805.85
2018-02-04T10:37:21.895Z,805.85
2018-02-04T10:38:21.896Z,805.83
2018-02-04T10:39:21.898Z,805.84
2018-02-04T10:40:21.905Z,805.83
2018-02-04T10:41:21.901Z,805.84
2018-02-04T10:42:21.906Z,805.85
2018-02-04T10:43:21.914Z,805.84
2018-02-04T10:44:21.920Z,805.86
2018-02-04T10:45:21.928Z,805.88
2018-02-04T10:46:21.930Z,805.89
2018-02-04T10:47:21.926Z,805.89
2018-02-04T10:48:21.935Z,805.90
2018-02-04T10:49:21.937Z,805.91
2018-02-04T10:50:21.942Z,805.89
2018-02-04T10:51:21.946Z,805.86
2018-02-04T10:52:21.952Z,805.88
2018-02-04T10:53:21.950Z,805.90
2018-02-04T10:54:21.955Z,805.91
2018-02-04T10:55:21.970Z,805.91
2018-02-04T10:56:21.971Z,805.92
2018-02-04T10:57:21.978Z,805.90
2018-02-04T10:58:21.971Z,805.93
2018-02-04T10:59:21.976Z,805.89
2018-02-04T11:00:21.991Z,805.89
2018-02-04T11:01:21.983Z,805.92
2018-02-04T11:02:21.997Z,805.93
2018-02-04T11:03:21.993Z,805.93
2018-02-04T11:04:21.995Z,805.92
2018-02-04T11:05:22.006Z,805.93
2018-02-04T11:06:22.002Z,805.94
2018-02-04T11:07:22.009Z,805.90
2018-02-04T11:08:22.011Z,805.87
2018-02-04T11:09:22.014Z,805.89
2018-02-04T11:10:22.027Z,805.90
2018-02-04T11:11:22.022Z,805.91
2018-02-04T11:12:22.035Z,805.92
2018-02-04T11:13:22.031Z,805.87
2018-02-04T11:14:22.036Z,805.87
2018-02-04T11:15:22.045Z,805.90
2018-02-04T11:16:22.050Z,805.90
2018-02-04T11:17:22.055Z,805.90
2018-02-04T11:18:22.055Z,805.90
2018-02-04T11:19:22.094Z,805.93
2018-02-04T11:20:22.065Z,805.93
2018-02-04T11:21:22.069Z,805.93
2018-02-04T11:22:22.070Z,805.97
2018-02-04T11:23:22.071Z,805.93
2018-02-04T11:24:22.079Z,805.93
2018-02-04T11:25:22.090Z,805.96
2018-02-04T11:26:22.088Z,805.95
2018-02-04T11:27:22.084Z,806.03
2018-02-04T11:28:22.092Z,805.98
2018-02-04T11:29:22.093Z,805.98
2018-02-04T11:30:22.099Z,806.01
2018-02-04T11:31:22.107Z,805.96
2018-02-04T11:32:22.111Z,805.95
2018-02-04T11:33:22.115Z,805.93
2018-02-04T11:34:22.119Z,805.93
2018-02-04T11:35:22.123Z,805.93
2018-02-04T11:36:22.123Z,805.94
2018-02-04T11:37:22.137Z,805.93
2018-02-04T11:38:22.129Z,805.91
2018-02-04T11:39:22.145Z,805.96
2018-02-04T11:40:22.148Z,805.91
2018-02-04T11:41:22.152Z,805.92
2018-02-04T11:42:22.153Z,805.92
2018-02-04T11:43:22.155Z,805.91
2018-02-04T11:44:22.158Z,805.91
2018-02-04T11:45:22.168Z,805.91
2018-02-04T11:46:22.170Z,805.90
2018-02-04T11:47:22.176Z,805.94
2018-02-04T11:48:22.181Z,805.93
2018-02-04T11:49:22.188Z,805.99
2018-02-04T11:50:22.193Z,806.00
2018-02-04T11:51:22.188Z,805.99
2018-02-04T11:52:22.256Z,805.96
2018-02-04T11:53:22.203Z,805.97
2018-02-04T11:54:22.211Z,805.99
2018-02-04T11:55:22.214Z,805.97
2018-02-04T11:56:22.213Z,805.94
2018-02-04T11:57:22.232Z,805.95
2018-02-04T11:58:22.223Z,805.93
2018-02-04T11:59:22.233Z,805.98
2018-02-04T12:00:22.245Z,805.97
2018-02-04T12:01:22.244Z,806.00
2018-02-04T12:02:22.243Z,806.02
2018-02-04T12:03:22.250Z,806.01
2018-02-04T12:04:22.265Z,806.01
2018-02-04T12:05:22.260Z,806.02
2018-02-04T12:06:22.268Z,806.01
2018-02-04T12:07:22.270Z,806.03
2018-02-04T12:08:22.278Z,806.03
2018-02-04T12:09:22.287Z,806.03
2018-02-04T12:10:22.288Z,806.04
2018-02-04T12:11:22.294Z,806.03
2018-02-04T12:12:22.303Z,806.00
2018-02-04T12:13:22.303Z,806.03
2018-02-04T12:14:22.313Z,806.00
2018-02-04T12:15:22.320Z,806.02
2018-02-04T12:16:22.330Z,806.04
2018-02-04T12:17:22.331Z,806.04
2018-02-04T12:18:22.335Z,806.07
2018-02-04T12:19:22.338Z,806.10
2018-02-04T12:20:22.349Z,806.09
2018-02-04T12:21:22.355Z,806.08
2018-02-04T12:22:22.360Z,806.08
2018-02-04T12:23:22.366Z,806.09
2018-02-04T12:24:22.367Z,806.08
2018-02-04T12:25:22.371Z,806.09
2018-02-04T12:26:22.378Z,806.09
2018-02-04T12:27:22.382Z,806.10
2018-02-04T12:28:22.394Z,806.09